Schofer, Pennsylvania
Current Conditions -  °F | °C
As of 12:54 PM on Monday 26 Jan 2015 (Local Time) from KRDG Reporting Station
Unknown Precip Unknown Precip  
Wind Chill: -13°   Ceiling: 2000
Heat Index: -6°   Visibility: 2.5mi
Dew Point: -9°   Wind: 12mph
Humidity: 78%   Direction: 20°NNE
Pressure: 29.83"   Gusts: NA
Location:  40.5336°N, 75.7775°W
Report Text: KRDG 261754Z 02010KT 2 1/2SM UP BKN020 OVC036 M06/M09 A2983 RMK AO2 SFC VIS 9 UPB49SNE49 SLP110 P0000 60000 T10611094 11044 21067 56021
Loading
Personal Weather Stations






























Interactive Weather Map New forecast layout! Learn more

10-Day Weather Forecast

Advertisements
Track Severe Weather on mobile